createdAt,value
2017-01-05T00:00:57.963Z,1007.44
2017-01-05T00:01:57.978Z,1007.39
2017-01-05T00:02:57.992Z,1007.43
2017-01-05T00:03:58.006Z,1007.49
2017-01-05T00:04:58.021Z,1007.52
2017-01-05T00:05:58.036Z,1007.55
2017-01-05T00:06:58.051Z,1007.57
2017-01-05T00:07:58.065Z,1007.58
2017-01-05T00:08:58.085Z,1007.63
2017-01-05T00:09:58.094Z,1007.68
2017-01-05T00:11:58.123Z,1007.73
2017-01-05T00:12:58.138Z,1007.67
2017-01-05T00:13:58.152Z,1007.69
2017-01-05T00:14:58.166Z,1007.7
2017-01-05T00:15:58.181Z,1007.72
2017-01-05T00:16:58.196Z,1007.73
2017-01-05T00:17:58.210Z,1007.75
2017-01-05T00:18:58.224Z,1007.75
2017-01-05T00:19:58.242Z,1007.8
2017-01-05T00:20:58.253Z,1007.8
2017-01-05T00:21:58.267Z,1007.88
2017-01-05T00:22:58.282Z,1007.92
2017-01-05T00:23:58.296Z,1007.95
2017-01-05T00:24:58.311Z,1007.93
2017-01-05T00:25:58.324Z,1008
2017-01-05T00:27:58.353Z,1008.04
2017-01-05T00:28:58.368Z,1008.02
2017-01-05T00:29:58.382Z,1008.04
2017-01-05T00:30:58.396Z,1008.05
2017-01-05T00:31:58.411Z,1008.12
2017-01-05T00:32:58.424Z,1008.13
2017-01-05T00:33:58.439Z,1008.15
2017-01-05T00:34:58.453Z,1008.15
2017-01-05T00:35:58.468Z,1008.2
2017-01-05T00:36:58.482Z,1008.25
2017-01-05T00:37:58.496Z,1008.28
2017-01-05T00:38:58.511Z,1008.33
2017-01-05T00:39:58.525Z,1008.34
2017-01-05T00:40:58.540Z,1008.34
2017-01-05T00:42:58.569Z,1008.34
2017-01-05T00:43:58.583Z,1008.43
2017-01-05T00:44:58.597Z,1008.46
2017-01-05T00:45:58.613Z,1008.47
2017-01-05T00:46:58.626Z,1008.49
2017-01-05T00:47:58.641Z,1008.54
2017-01-05T00:48:58.655Z,1008.6
2017-01-05T00:49:58.669Z,1008.53
2017-01-05T00:50:58.684Z,1008.62
2017-01-05T00:51:58.697Z,1008.69
2017-01-05T00:52:58.711Z,1008.73
2017-01-05T00:53:58.726Z,1008.7
2017-01-05T00:54:58.740Z,1008.71
2017-01-05T00:55:58.754Z,1008.7
2017-01-05T00:56:58.769Z,1008.74
2017-01-05T00:57:58.783Z,1008.77
2017-01-05T00:58:58.797Z,1008.73
2017-01-05T00:59:58.811Z,1008.82
2017-01-05T01:00:58.826Z,1008.73
2017-01-05T01:01:58.839Z,1008.82
2017-01-05T01:02:58.854Z,1008.82
2017-01-05T01:03:58.868Z,1008.91
2017-01-05T01:04:58.884Z,1008.91
2017-01-05T01:05:58.896Z,1008.94
2017-01-05T01:06:58.910Z,1008.98
2017-01-05T01:07:58.925Z,1008.99
2017-01-05T01:08:58.939Z,1009.01
2017-01-05T01:09:58.953Z,1009.06
2017-01-05T01:10:58.967Z,1009.09
2017-01-05T01:11:58.981Z,1009.08
2017-01-05T01:12:58.995Z,1009.06
2017-01-05T01:14:59.024Z,1009.15
2017-01-05T01:15:59.039Z,1009.18
2017-01-05T01:16:59.052Z,1009.25
2017-01-05T01:17:59.066Z,1009.35
2017-01-05T01:18:59.081Z,1009.36
2017-01-05T01:19:59.095Z,1009.35
2017-01-05T01:20:59.108Z,1009.35
2017-01-05T01:21:59.123Z,1009.43
2017-01-05T01:22:59.137Z,1009.44
2017-01-05T01:23:59.150Z,1009.42
2017-01-05T01:24:59.165Z,1009.49
2017-01-05T01:25:59.179Z,1009.46
2017-01-05T01:26:59.194Z,1009.52
2017-01-05T01:27:59.207Z,1009.54
2017-01-05T01:28:59.222Z,1009.53
2017-01-05T01:30:59.251Z,1009.55
2017-01-05T01:31:59.264Z,1009.56
2017-01-05T01:32:59.279Z,1009.6
2017-01-05T01:33:59.293Z,1009.64
2017-01-05T01:34:59.306Z,1009.62
2017-01-05T01:35:59.321Z,1009.67
2017-01-05T01:36:59.335Z,1009.64
2017-01-05T01:37:59.350Z,1009.74
2017-01-05T01:38:59.363Z,1009.7
2017-01-05T01:39:59.378Z,1009.68
2017-01-05T01:40:59.392Z,1009.72
2017-01-05T01:41:59.407Z,1009.75
2017-01-05T01:42:59.420Z,1009.8
2017-01-05T01:43:59.435Z,1009.79
2017-01-05T01:44:59.449Z,1009.81
2017-01-05T01:46:59.477Z,1009.86
2017-01-05T01:47:59.491Z,1009.86
2017-01-05T01:48:59.506Z,1009.92
2017-01-05T01:49:59.519Z,1009.96
2017-01-05T01:50:59.534Z,1009.94
2017-01-05T01:51:59.548Z,1009.99
2017-01-05T01:52:59.563Z,1010
2017-01-05T01:53:59.576Z,1010.03
2017-01-05T01:54:59.590Z,1010.03
2017-01-05T01:55:59.605Z,1010.08
2017-01-05T01:56:59.618Z,1010.09
2017-01-05T01:57:59.633Z,1010.09
2017-01-05T01:58:59.647Z,1010.12
2017-01-05T01:59:59.662Z,1010.13
2017-01-05T02:00:59.675Z,1010.15
2017-01-05T02:02:59.704Z,1010.19
2017-01-05T02:03:59.719Z,1010.15
2017-01-05T02:04:59.732Z,1010.2
2017-01-05T02:05:59.746Z,1010.28
2017-01-05T02:06:59.761Z,1010.26
2017-01-05T02:07:59.774Z,1010.26
2017-01-05T02:08:59.839Z,1010.31
2017-01-05T02:09:59.804Z,1010.37
2017-01-05T02:10:59.819Z,1010.35
2017-01-05T02:11:59.831Z,1010.37
2017-01-05T02:12:59.846Z,1010.41
2017-01-05T02:13:59.860Z,1010.4
2017-01-05T02:14:59.875Z,1010.41
2017-01-05T02:15:59.889Z,1010.42
2017-01-05T02:17:59.918Z,1010.46
2017-01-05T02:18:59.931Z,1010.48
2017-01-05T02:19:59.947Z,1010.53
2017-01-05T02:20:59.960Z,1010.58
2017-01-05T02:21:59.974Z,1010.56
2017-01-05T02:22:59.988Z,1010.6
2017-01-05T02:24:00.002Z,1010.62
2017-01-05T02:25:00.016Z,1010.62
2017-01-05T02:26:00.030Z,1010.68
2017-01-05T02:27:00.044Z,1010.7
2017-01-05T02:28:00.059Z,1010.7
2017-01-05T02:29:00.073Z,1010.62
2017-01-05T02:30:00.086Z,1010.71
2017-01-05T02:31:00.100Z,1010.75
2017-01-05T02:32:00.115Z,1010.73
2017-01-05T02:33:00.129Z,1010.81
2017-01-05T02:34:00.142Z,1010.81
2017-01-05T02:35:00.157Z,1010.87
2017-01-05T02:36:00.171Z,1010.89
2017-01-05T02:37:00.185Z,1010.95
2017-01-05T02:38:00.199Z,1010.91
2017-01-05T02:39:00.213Z,1010.96
2017-01-05T02:40:00.227Z,1011.02
2017-01-05T02:41:00.241Z,1010.99
2017-01-05T02:42:00.255Z,1010.97
2017-01-05T02:43:00.269Z,1011.01
2017-01-05T02:44:00.283Z,1011.1
2017-01-05T02:45:00.297Z,1011.06
2017-01-05T02:46:00.311Z,1011.13
2017-01-05T02:47:00.325Z,1011.13
2017-01-05T02:48:00.338Z,1011.11
2017-01-05T02:50:00.367Z,1011.16
2017-01-05T02:51:00.381Z,1011.21
2017-01-05T02:52:00.397Z,1011.18
2017-01-05T02:53:00.408Z,1011.28
2017-01-05T02:54:00.423Z,1011.32
2017-01-05T02:55:00.437Z,1011.32
2017-01-05T02:56:00.450Z,1011.36
2017-01-05T02:57:00.464Z,1011.39
2017-01-05T02:58:00.478Z,1011.41
2017-01-05T02:59:00.491Z,1011.41
2017-01-05T03:00:00.506Z,1011.42
2017-01-05T03:01:00.520Z,1011.39
2017-01-05T03:02:00.534Z,1011.43
2017-01-05T03:03:00.547Z,1011.45
2017-01-05T03:04:00.561Z,1011.48
2017-01-05T03:06:00.590Z,1011.53
2017-01-05T03:07:00.603Z,1011.55
2017-01-05T03:08:00.617Z,1011.53
2017-01-05T03:09:00.638Z,1011.58
2017-01-05T03:10:00.644Z,1011.6
2017-01-05T03:11:00.658Z,1011.63
2017-01-05T03:12:00.676Z,1011.6
2017-01-05T03:13:00.687Z,1011.64
2017-01-05T03:14:00.699Z,1011.67
2017-01-05T03:15:00.714Z,1011.67
2017-01-05T03:16:00.727Z,1011.7
2017-01-05T03:17:00.742Z,1011.75
2017-01-05T03:18:00.755Z,1011.77
2017-01-05T03:19:00.769Z,1011.73
2017-01-05T03:20:00.783Z,1011.76
2017-01-05T03:22:00.811Z,1011.8
2017-01-05T03:23:00.824Z,1011.78
2017-01-05T03:24:00.838Z,1011.79
2017-01-05T03:25:00.852Z,1011.84
2017-01-05T03:26:00.865Z,1011.84
2017-01-05T03:27:00.880Z,1011.91
2017-01-05T03:28:00.894Z,1011.89
2017-01-05T03:29:00.907Z,1011.98
2017-01-05T03:30:00.921Z,1012.01
2017-01-05T03:31:00.935Z,1011.99
2017-01-05T03:32:00.948Z,1012.01
2017-01-05T03:33:00.962Z,1012.08
2017-01-05T03:34:00.976Z,1012.1
2017-01-05T03:35:00.991Z,1012.08
2017-01-05T03:36:01.003Z,1012.17
2017-01-05T03:38:01.032Z,1012.15
2017-01-05T03:39:01.046Z,1012.17
2017-01-05T03:40:01.059Z,1012.17
2017-01-05T03:41:01.074Z,1012.17
2017-01-05T03:42:01.087Z,1012.21
2017-01-05T03:43:01.100Z,1012.29
2017-01-05T03:44:01.114Z,1012.26
2017-01-05T03:45:01.128Z,1012.29
2017-01-05T03:46:01.142Z,1012.35
2017-01-05T03:47:01.155Z,1012.39
2017-01-05T03:48:01.170Z,1012.31
2017-01-05T03:49:01.184Z,1012.37
2017-01-05T03:50:01.198Z,1012.43
2017-01-05T03:51:01.212Z,1012.47
2017-01-05T03:53:01.240Z,1012.47
2017-01-05T03:54:01.253Z,1012.53
2017-01-05T03:55:01.267Z,1012.56
2017-01-05T03:56:01.281Z,1012.59
2017-01-05T03:57:01.295Z,1012.57
2017-01-05T03:58:01.309Z,1012.58
2017-01-05T03:59:01.322Z,1012.56
2017-01-05T04:00:01.337Z,1012.65
2017-01-05T04:01:01.350Z,1012.66
2017-01-05T04:02:01.364Z,1012.7
2017-01-05T04:03:01.378Z,1012.67
2017-01-05T04:04:01.392Z,1012.73
2017-01-05T04:05:01.405Z,1012.73
2017-01-05T04:06:01.419Z,1012.77
2017-01-05T04:07:01.433Z,1012.72
2017-01-05T04:08:01.447Z,1012.81
2017-01-05T04:09:01.460Z,1012.82
2017-01-05T04:10:01.474Z,1012.79
2017-01-05T04:11:01.489Z,1012.82
2017-01-05T04:12:01.502Z,1012.89
2017-01-05T04:13:01.516Z,1012.9
2017-01-05T04:14:01.530Z,1012.94
2017-01-05T04:15:01.544Z,1013
2017-01-05T04:16:01.557Z,1012.95
2017-01-05T04:17:01.571Z,1013.02
2017-01-05T04:18:01.585Z,1013.1
2017-01-05T04:19:01.599Z,1013.15
2017-01-05T04:20:01.612Z,1013.1
2017-01-05T04:21:01.627Z,1013.15
2017-01-05T04:22:01.640Z,1013.18
2017-01-05T04:23:01.653Z,1013.2
2017-01-05T04:25:01.681Z,1013.19
2017-01-05T04:26:01.695Z,1013.25
2017-01-05T04:27:01.708Z,1013.26
2017-01-05T04:28:01.722Z,1013.29
2017-01-05T04:29:01.736Z,1013.35
2017-01-05T04:30:01.751Z,1013.34
2017-01-05T04:31:01.763Z,1013.39
2017-01-05T04:32:01.777Z,1013.45
2017-01-05T04:33:01.791Z,1013.45
2017-01-05T04:34:01.804Z,1013.49
2017-01-05T04:35:01.818Z,1013.56
2017-01-05T04:36:01.832Z,1013.58
2017-01-05T04:37:01.846Z,1013.58
2017-01-05T04:38:01.859Z,1013.58
2017-01-05T04:39:01.874Z,1013.55
2017-01-05T04:41:01.900Z,1013.59
2017-01-05T04:42:01.913Z,1013.62
2017-01-05T04:43:01.927Z,1013.57
2017-01-05T04:44:01.947Z,1013.61
2017-01-05T04:45:01.955Z,1013.59
2017-01-05T04:46:01.968Z,1013.61
2017-01-05T04:47:01.982Z,1013.63
2017-01-05T04:48:01.996Z,1013.62
2017-01-05T04:49:02.009Z,1013.66
2017-01-05T04:50:02.023Z,1013.69
2017-01-05T04:51:02.037Z,1013.73
2017-01-05T04:52:02.052Z,1013.71
2017-01-05T04:53:02.064Z,1013.75
2017-01-05T04:54:02.077Z,1013.82
2017-01-05T04:55:02.091Z,1013.81
2017-01-05T04:57:02.118Z,1013.87
2017-01-05T04:58:02.132Z,1013.9
2017-01-05T04:59:02.146Z,1013.92
2017-01-05T05:00:02.159Z,1013.95
2017-01-05T05:01:02.173Z,1013.92
2017-01-05T05:02:02.186Z,1013.98
2017-01-05T05:03:02.200Z,1013.99
2017-01-05T05:04:02.213Z,1013.98
2017-01-05T05:05:02.227Z,1014.05
2017-01-05T05:06:02.240Z,1014.09
2017-01-05T05:07:02.253Z,1014.13
2017-01-05T05:08:02.267Z,1014.08
2017-01-05T05:09:02.282Z,1014.14
2017-01-05T05:10:02.294Z,1014.23
2017-01-05T05:11:02.307Z,1014.14
2017-01-05T05:13:02.335Z,1014.21
2017-01-05T05:14:02.348Z,1014.17
2017-01-05T05:15:02.361Z,1014.29
2017-01-05T05:16:02.375Z,1014.37
2017-01-05T05:17:02.388Z,1014.3
2017-01-05T05:18:02.401Z,1014.32
2017-01-05T05:19:02.415Z,1014.35
2017-01-05T05:20:02.429Z,1014.42
2017-01-05T05:21:02.442Z,1014.37
2017-01-05T05:22:02.455Z,1014.42
2017-01-05T05:23:02.468Z,1014.46
2017-01-05T05:24:02.482Z,1014.51
2017-01-05T05:25:02.496Z,1014.5
2017-01-05T05:26:02.510Z,1014.49
2017-01-05T05:28:02.537Z,1014.54
2017-01-05T05:29:02.550Z,1014.52
2017-01-05T05:30:02.570Z,1014.52
2017-01-05T05:31:02.577Z,1014.6
2017-01-05T05:32:02.590Z,1014.66
2017-01-05T05:33:02.603Z,1014.67
2017-01-05T05:34:02.617Z,1014.7
2017-01-05T05:35:02.630Z,1014.69
2017-01-05T05:36:02.643Z,1014.73
2017-01-05T05:37:02.657Z,1014.8
2017-01-05T05:38:02.670Z,1014.75
2017-01-05T05:39:02.684Z,1014.79
2017-01-05T05:40:02.697Z,1014.81
2017-01-05T05:41:02.710Z,1014.83
2017-01-05T05:42:02.724Z,1014.88
2017-01-05T05:43:02.738Z,1014.91
2017-01-05T05:44:02.751Z,1014.88
2017-01-05T05:45:02.764Z,1014.88
2017-01-05T05:46:02.778Z,1014.89
2017-01-05T05:47:02.791Z,1014.9
2017-01-05T05:48:02.804Z,1014.93
2017-01-05T05:49:02.818Z,1014.93
2017-01-05T05:50:02.832Z,1014.96
2017-01-05T05:51:02.845Z,1015
2017-01-05T05:52:02.858Z,1014.97
2017-01-05T05:53:02.872Z,1014.99
2017-01-05T05:54:02.891Z,1015.04
2017-01-05T05:55:02.899Z,1015.11
2017-01-05T05:56:02.912Z,1015.09
2017-01-05T05:57:02.926Z,1015.08
2017-01-05T05:58:02.938Z,1015.1
2017-01-05T06:00:02.966Z,1015.19
2017-01-05T06:01:02.979Z,1015.21
2017-01-05T06:02:02.992Z,1015.2
2017-01-05T06:03:03.006Z,1015.23
2017-01-05T06:04:03.020Z,1015.28
2017-01-05T06:05:03.033Z,1015.23
2017-01-05T06:06:03.046Z,1015.3
2017-01-05T06:07:03.059Z,1015.3
2017-01-05T06:08:03.075Z,1015.34
2017-01-05T06:09:03.086Z,1015.4
2017-01-05T06:10:03.099Z,1015.47
2017-01-05T06:11:03.112Z,1015.54
2017-01-05T06:12:03.126Z,1015.57
2017-01-05T06:13:03.138Z,1015.62
2017-01-05T06:14:03.152Z,1015.59
2017-01-05T06:16:03.178Z,1015.6
2017-01-05T06:17:03.191Z,1015.64
2017-01-05T06:18:03.238Z,1015.64
2017-01-05T06:19:03.218Z,1015.65
2017-01-05T06:20:03.230Z,1015.68
2017-01-05T06:21:03.244Z,1015.7
2017-01-05T06:22:03.256Z,1015.77
2017-01-05T06:23:03.270Z,1015.76
2017-01-05T06:24:03.282Z,1015.86
2017-01-05T06:25:03.295Z,1015.88
2017-01-05T06:26:03.313Z,1015.94
2017-01-05T06:27:03.322Z,1015.95
2017-01-05T06:28:03.334Z,1015.95
2017-01-05T06:29:03.347Z,1015.97
2017-01-05T06:30:03.361Z,1016
2017-01-05T06:32:03.387Z,1016.04
2017-01-05T06:33:03.400Z,1016.09
2017-01-05T06:34:03.413Z,1016.09
2017-01-05T06:35:03.426Z,1016.09
2017-01-05T06:36:03.439Z,1016.17
2017-01-05T06:37:03.452Z,1016.17
2017-01-05T06:38:03.466Z,1016.16
2017-01-05T06:39:03.478Z,1016.18
2017-01-05T06:40:03.492Z,1016.24
2017-01-05T06:41:03.505Z,1016.17
2017-01-05T06:42:03.517Z,1016.28
2017-01-05T06:43:03.530Z,1016.29
2017-01-05T06:44:03.544Z,1016.35
2017-01-05T06:45:03.557Z,1016.36
2017-01-05T06:46:03.570Z,1016.38
2017-01-05T06:48:03.596Z,1016.44
2017-01-05T06:49:03.610Z,1016.4
2017-01-05T06:50:03.622Z,1016.5
2017-01-05T06:51:03.636Z,1016.47
2017-01-05T06:52:03.649Z,1016.57
2017-01-05T06:53:03.661Z,1016.58
2017-01-05T06:54:03.675Z,1016.62
2017-01-05T06:55:03.688Z,1016.63
2017-01-05T06:56:03.702Z,1016.66
2017-01-05T06:57:03.714Z,1016.7
2017-01-05T06:58:03.727Z,1016.73
2017-01-05T06:59:03.741Z,1016.72
2017-01-05T07:00:03.754Z,1016.75
2017-01-05T07:01:03.767Z,1016.76
2017-01-05T07:03:03.794Z,1016.85
2017-01-05T07:04:03.807Z,1016.95
2017-01-05T07:05:03.820Z,1016.89
2017-01-05T07:06:03.834Z,1017
2017-01-05T07:07:03.847Z,1016.94
2017-01-05T07:08:03.860Z,1016.97
2017-01-05T07:09:03.874Z,1017.02
2017-01-05T07:10:03.886Z,1017.06
2017-01-05T07:11:03.899Z,1017.06
2017-01-05T07:12:03.913Z,1017.11
2017-01-05T07:13:03.926Z,1017.14
2017-01-05T07:14:03.940Z,1017.16
2017-01-05T07:15:03.952Z,1017.17
2017-01-05T07:16:03.965Z,1017.2
2017-01-05T07:17:03.979Z,1017.24
2017-01-05T07:18:03.993Z,1017.25
2017-01-05T07:19:04.005Z,1017.29
2017-01-05T07:20:04.019Z,1017.32
2017-01-05T07:21:04.032Z,1017.41
2017-01-05T07:22:04.045Z,1017.39
2017-01-05T07:23:04.058Z,1017.45
2017-01-05T07:24:04.072Z,1017.44
2017-01-05T07:25:04.085Z,1017.51
2017-01-05T07:26:04.098Z,1017.67
2017-01-05T07:27:04.112Z,1017.69
2017-01-05T07:28:04.125Z,1017.52
2017-01-05T07:29:04.139Z,1017.66
2017-01-05T07:30:04.151Z,1017.71
2017-01-05T07:31:04.165Z,1017.73
2017-01-05T07:32:04.178Z,1017.77
2017-01-05T07:33:04.191Z,1017.78
2017-01-05T07:35:04.218Z,1017.81
2017-01-05T07:36:04.231Z,1017.88
2017-01-05T07:37:04.244Z,1017.89
2017-01-05T07:38:04.262Z,1017.92
2017-01-05T07:39:04.273Z,1017.94
2017-01-05T07:40:04.285Z,1017.97
2017-01-05T07:41:04.297Z,1018
2017-01-05T07:42:04.311Z,1018.03
2017-01-05T07:43:04.325Z,1018.06
2017-01-05T07:44:04.337Z,1018.1
2017-01-05T07:45:04.351Z,1018.07
2017-01-05T07:46:04.364Z,1018.11
2017-01-05T07:47:04.378Z,1018.14
2017-01-05T07:48:04.390Z,1018.16
2017-01-05T07:49:04.404Z,1018.15
2017-01-05T07:51:04.432Z,1018.23
2017-01-05T07:52:04.444Z,1018.3
2017-01-05T07:53:04.458Z,1018.26
2017-01-05T07:54:04.471Z,1018.29
2017-01-05T07:55:04.484Z,1018.31
2017-01-05T07:56:04.501Z,1018.32
2017-01-05T07:57:04.511Z,1018.37
2017-01-05T07:58:04.525Z,1018.4
2017-01-05T07:59:04.537Z,1018.47
2017-01-05T08:00:04.551Z,1018.5
2017-01-05T08:01:04.564Z,1018.51
2017-01-05T08:02:04.581Z,1018.57
2017-01-05T08:03:04.592Z,1018.55
2017-01-05T08:04:04.605Z,1018.64
2017-01-05T08:05:04.617Z,1018.67
2017-01-05T08:07:04.644Z,1018.69
2017-01-05T08:08:04.657Z,1018.76
2017-01-05T08:09:04.671Z,1018.72
2017-01-05T08:10:04.683Z,1018.81
2017-01-05T08:11:04.696Z,1018.79
2017-01-05T08:12:04.710Z,1018.8
2017-01-05T08:13:04.724Z,1018.84
2017-01-05T08:14:04.736Z,1018.89
2017-01-05T08:15:04.750Z,1018.91
2017-01-05T08:16:04.763Z,1018.92
2017-01-05T08:17:04.776Z,1019.04
2017-01-05T08:18:04.790Z,1019.06
2017-01-05T08:19:04.803Z,1019.06
2017-01-05T08:20:04.817Z,1019.11
2017-01-05T08:21:04.829Z,1019.03
2017-01-05T08:23:04.856Z,1019.06
2017-01-05T08:24:04.870Z,1019.13
2017-01-05T08:25:04.882Z,1019.09
2017-01-05T08:26:04.895Z,1019.08
2017-01-05T08:27:04.909Z,1019.24
2017-01-05T08:28:04.921Z,1019.27
2017-01-05T08:29:04.935Z,1019.23
2017-01-05T08:30:04.948Z,1019.28
2017-01-05T08:31:04.961Z,1019.27
2017-01-05T08:32:04.974Z,1019.31
2017-01-05T08:33:04.987Z,1019.3
2017-01-05T08:34:05.003Z,1019.29
2017-01-05T08:35:05.014Z,1019.32
2017-01-05T08:36:05.027Z,1019.28
2017-01-05T08:38:05.054Z,1019.32
2017-01-05T08:39:05.066Z,1019.37
2017-01-05T08:40:05.080Z,1019.4
2017-01-05T08:41:05.093Z,1019.44
2017-01-05T08:42:05.106Z,1019.47
2017-01-05T08:43:05.119Z,1019.49
2017-01-05T08:44:05.133Z,1019.47
2017-01-05T08:45:05.146Z,1019.49
2017-01-05T08:46:05.159Z,1019.54
2017-01-05T08:47:05.172Z,1019.59
2017-01-05T08:48:05.186Z,1019.58
2017-01-05T08:49:05.199Z,1019.63
2017-01-05T08:50:05.212Z,1019.61
2017-01-05T08:51:05.226Z,1019.64
2017-01-05T08:52:05.239Z,1019.65
2017-01-05T08:53:05.253Z,1019.68
2017-01-05T08:54:05.266Z,1019.71
2017-01-05T08:55:05.279Z,1019.71
2017-01-05T08:56:05.293Z,1019.73
2017-01-05T08:57:05.305Z,1019.78
2017-01-05T08:58:05.319Z,1019.79
2017-01-05T08:59:05.333Z,1019.84
2017-01-05T09:00:05.346Z,1019.86
2017-01-05T09:01:05.362Z,1019.93
2017-01-05T09:02:05.373Z,1019.94
2017-01-05T09:03:05.387Z,1020
2017-01-05T09:04:05.400Z,1020.04
2017-01-05T09:05:05.413Z,1020.05
2017-01-05T09:06:05.426Z,1020.09
2017-01-05T09:07:05.452Z,1020.15
2017-01-05T09:08:05.453Z,1020.19
2017-01-05T09:10:05.480Z,1020.26
2017-01-05T09:11:05.494Z,1020.28
2017-01-05T09:12:05.507Z,1020.3
2017-01-05T09:13:05.522Z,1020.38
2017-01-05T09:14:05.534Z,1020.35
2017-01-05T09:15:05.548Z,1020.43
2017-01-05T09:16:05.561Z,1020.43
2017-01-05T09:17:05.575Z,1020.45
2017-01-05T09:18:05.589Z,1020.49
2017-01-05T09:19:05.601Z,1020.49
2017-01-05T09:20:05.616Z,1020.51
2017-01-05T09:21:05.629Z,1020.5
2017-01-05T09:22:05.644Z,1020.5
2017-01-05T09:23:05.657Z,1020.53
2017-01-05T09:24:05.671Z,1020.56
2017-01-05T09:26:05.704Z,1020.6
2017-01-05T09:27:05.712Z,1020.63
2017-01-05T09:28:05.726Z,1020.6
2017-01-05T09:29:05.740Z,1020.65
2017-01-05T09:30:05.753Z,1020.63
2017-01-05T09:31:05.767Z,1020.62
2017-01-05T09:32:05.781Z,1020.67
2017-01-05T09:33:05.795Z,1020.66
2017-01-05T09:34:05.808Z,1020.66
2017-01-05T09:35:05.822Z,1020.66
2017-01-05T09:36:05.837Z,1020.69
2017-01-05T09:37:05.850Z,1020.74
2017-01-05T09:38:05.864Z,1020.74
2017-01-05T09:39:05.878Z,1020.72
2017-01-05T09:40:05.892Z,1020.8
2017-01-05T09:42:05.919Z,1020.77
2017-01-05T09:43:05.933Z,1020.83
2017-01-05T09:44:05.947Z,1020.89
2017-01-05T09:45:05.960Z,1020.88
2017-01-05T09:46:06.275Z,1020.87
2017-01-05T09:47:05.990Z,1020.94
2017-01-05T09:48:06.003Z,1020.96
2017-01-05T09:49:06.016Z,1020.98
2017-01-05T09:50:06.030Z,1020.98
2017-01-05T09:51:06.045Z,1021
2017-01-05T09:52:06.059Z,1021.02
2017-01-05T09:53:06.074Z,1021.01
2017-01-05T09:54:06.088Z,1021.02
2017-01-05T09:55:06.105Z,1021.01
2017-01-05T09:56:06.116Z,1021.02
2017-01-05T09:58:06.145Z,1021.08
2017-01-05T09:59:06.160Z,1021.11
2017-01-05T10:00:06.173Z,1021.12
2017-01-05T10:01:06.187Z,1021.15
2017-01-05T10:02:06.202Z,1021.15
2017-01-05T10:03:06.215Z,1021.16
2017-01-05T10:04:06.230Z,1021.18
2017-01-05T10:05:06.244Z,1021.17
2017-01-05T10:06:06.258Z,1021.21
2017-01-05T10:07:06.272Z,1021.19
2017-01-05T10:08:06.286Z,1021.18
2017-01-05T10:09:06.300Z,1021.21
2017-01-05T10:10:06.314Z,1021.22
2017-01-05T10:11:06.328Z,1021.24
2017-01-05T10:13:06.357Z,1021.25
2017-01-05T10:14:06.370Z,1021.27
2017-01-05T10:15:06.384Z,1021.26
2017-01-05T10:16:06.398Z,1021.3
2017-01-05T10:17:06.415Z,1021.32
2017-01-05T10:18:06.424Z,1021.31
2017-01-05T10:19:06.439Z,1021.36
2017-01-05T10:20:06.453Z,1021.37
2017-01-05T10:21:06.466Z,1021.34
2017-01-05T10:22:06.480Z,1021.35
2017-01-05T10:23:06.494Z,1021.37
2017-01-05T10:24:06.508Z,1021.34
2017-01-05T10:25:06.521Z,1021.38
2017-01-05T10:26:06.534Z,1021.39
2017-01-05T10:27:06.549Z,1021.41
2017-01-05T10:28:06.563Z,1021.35
2017-01-05T10:29:06.575Z,1021.37
2017-01-05T10:30:06.589Z,1021.41
2017-01-05T10:31:06.603Z,1021.45
2017-01-05T10:32:06.617Z,1021.42
2017-01-05T10:33:06.631Z,1021.46
2017-01-05T10:34:06.644Z,1021.51
2017-01-05T10:35:06.659Z,1021.44
2017-01-05T10:36:06.671Z,1021.55
2017-01-05T10:37:06.685Z,1021.59
2017-01-05T10:38:06.699Z,1021.58
2017-01-05T10:39:06.714Z,1021.56
2017-01-05T10:40:06.726Z,1021.59
2017-01-05T10:41:06.741Z,1021.57
2017-01-05T10:42:06.755Z,1021.61
2017-01-05T10:43:06.768Z,1021.62
2017-01-05T10:45:06.795Z,1021.65
2017-01-05T10:46:06.810Z,1021.65
2017-01-05T10:47:06.823Z,1021.68
2017-01-05T10:48:06.837Z,1021.74
2017-01-05T10:49:06.851Z,1021.73
2017-01-05T10:50:06.865Z,1021.77
2017-01-05T10:51:06.878Z,1021.73
2017-01-05T10:52:06.895Z,1021.77
2017-01-05T10:53:06.906Z,1021.8
2017-01-05T10:54:06.920Z,1021.77
2017-01-05T10:55:06.934Z,1021.83
2017-01-05T10:56:06.948Z,1021.8
2017-01-05T10:57:06.961Z,1021.87
2017-01-05T10:58:06.975Z,1021.86
2017-01-05T10:59:06.989Z,1021.9
2017-01-05T11:01:07.017Z,1021.9
2017-01-05T11:02:07.030Z,1021.98
2017-01-05T11:03:07.044Z,1021.98
2017-01-05T11:04:07.058Z,1021.98
2017-01-05T11:05:07.071Z,1021.95
2017-01-05T11:06:07.085Z,1021.96
2017-01-05T11:07:07.103Z,1021.99
2017-01-05T11:08:07.113Z,1021.93
2017-01-05T11:09:07.126Z,1021.98
2017-01-05T11:10:07.140Z,1021.98
2017-01-05T11:11:07.154Z,1021.97
2017-01-05T11:12:07.168Z,1021.95
2017-01-05T11:13:07.181Z,1022
2017-01-05T11:14:07.195Z,1022.01
2017-01-05T11:15:07.209Z,1022.04
2017-01-05T11:17:07.236Z,1022.04
2017-01-05T11:18:07.250Z,1022.03
2017-01-05T11:19:07.264Z,1022.03
2017-01-05T11:20:07.279Z,1022.01
2017-01-05T11:21:07.292Z,1022.08
2017-01-05T11:22:07.306Z,1022.03
2017-01-05T11:23:07.320Z,1021.95
2017-01-05T11:24:07.333Z,1022.06
2017-01-05T11:25:07.347Z,1021.98
2017-01-05T11:26:07.362Z,1022.06
2017-01-05T11:27:07.375Z,1022.09
2017-01-05T11:28:07.389Z,1022.06
2017-01-05T11:29:07.403Z,1022.14
2017-01-05T11:30:07.417Z,1022.16
2017-01-05T11:31:07.430Z,1022.2
2017-01-05T11:33:07.458Z,1022.24
2017-01-05T11:34:07.472Z,1022.21
2017-01-05T11:35:07.485Z,1022.33
2017-01-05T11:36:07.499Z,1022.28
2017-01-05T11:37:07.513Z,1022.31
2017-01-05T11:38:07.526Z,1022.26
2017-01-05T11:39:07.541Z,1022.26
2017-01-05T11:40:07.555Z,1022.36
2017-01-05T11:41:07.569Z,1022.35
2017-01-05T11:42:07.582Z,1022.39
2017-01-05T11:43:07.596Z,1022.41
2017-01-05T11:44:07.610Z,1022.34
2017-01-05T11:45:07.623Z,1022.31
2017-01-05T11:46:07.638Z,1022.43
2017-01-05T11:48:07.665Z,1022.41
2017-01-05T11:49:07.678Z,1022.41
2017-01-05T11:50:07.693Z,1022.54
2017-01-05T11:51:07.706Z,1022.42
2017-01-05T11:52:07.720Z,1022.42
2017-01-05T11:53:07.733Z,1022.56
2017-01-05T11:54:07.747Z,1022.6
2017-01-05T11:55:07.761Z,1022.52
2017-01-05T11:56:07.774Z,1022.57
2017-01-05T11:57:07.790Z,1022.53
2017-01-05T11:58:07.803Z,1022.67
2017-01-05T11:59:07.817Z,1022.62
2017-01-05T12:00:07.838Z,1022.71
2017-01-05T12:01:07.844Z,1022.75
2017-01-05T12:02:07.859Z,1022.75
2017-01-05T12:03:07.873Z,1022.71
2017-01-05T12:04:07.887Z,1022.77
2017-01-05T12:05:07.901Z,1022.77
2017-01-05T12:06:07.915Z,1022.82
2017-01-05T12:07:07.928Z,1022.78
2017-01-05T12:08:07.942Z,1023
2017-01-05T12:09:07.957Z,1023.07
2017-01-05T12:10:07.971Z,1022.96
2017-01-05T12:11:07.985Z,1022.94
2017-01-05T12:12:07.999Z,1022.9
2017-01-05T12:13:08.013Z,1022.95
2017-01-05T12:14:08.027Z,1022.9
2017-01-05T12:15:08.040Z,1022.98
2017-01-05T12:16:08.054Z,1022.99
2017-01-05T12:17:08.068Z,1023.02
2017-01-05T12:18:08.081Z,1023.04
2017-01-05T12:20:08.109Z,1023.17
2017-01-05T12:21:08.123Z,1023.07
2017-01-05T12:22:08.136Z,1023.1
2017-01-05T12:23:08.150Z,1023.17
2017-01-05T12:24:08.164Z,1023.17
2017-01-05T12:25:08.178Z,1023.15
2017-01-05T12:26:08.190Z,1023.17
2017-01-05T12:27:08.204Z,1023.13
2017-01-05T12:28:08.218Z,1023.11
2017-01-05T12:29:08.231Z,1023.15
2017-01-05T12:30:08.244Z,1023.14
2017-01-05T12:31:08.258Z,1023.19
2017-01-05T12:32:08.272Z,1023.25
2017-01-05T12:33:08.288Z,1023.18
2017-01-05T12:34:08.299Z,1023.16
2017-01-05T12:36:08.326Z,1023.25
2017-01-05T12:37:08.539Z,1023.24
2017-01-05T12:38:08.353Z,1023.26
2017-01-05T12:39:08.366Z,1023.36
2017-01-05T12:40:08.380Z,1023.25
2017-01-05T12:41:08.393Z,1023.26
2017-01-05T12:42:08.407Z,1023.35
2017-01-05T12:43:08.421Z,1023.39
2017-01-05T12:44:08.433Z,1023.48
2017-01-05T12:45:08.447Z,1023.34
2017-01-05T12:46:08.461Z,1023.39
2017-01-05T12:47:08.475Z,1023.37
2017-01-05T12:48:08.488Z,1023.56
2017-01-05T12:49:08.502Z,1023.44